This is the latest recevied weather packets stored in our database for station/object KQ4LLM. If no packets are shown the sender has not sent any weather packets the latest 10 day(s).
| Time | Temp. | Humidity | Pressure | Rain* | Wind** | Luminosity | Snow |
|---|---|---|---|---|---|---|---|
| 1778086700 | 21.11° C | 80% | - | 0 mm | - | - | - |
| 1778086391 | 21.11° C | 77% | - | 0 mm | - | - | - |
| 1778086088 | 21.11° C | 76% | - | 0 mm | - | - | - |
| 1778085784 | 21.67° C | 74% | - | 0 mm | - | - | - |
| 1778085481 | 21.11° C | 76% | - | 0 mm | - | - | - |
| 1778085176 | 21.11° C | 75% | - | 0 mm | - | - | - |
| 1778084872 | 21.11° C | 76% | - | 0 mm | - | - | - |
| 1778084570 | 21.11° C | 76% | - | 0 mm | - | - | - |
| 1778084267 | 21.11° C | 77% | - | 0 mm | - | - | - |
| 1778083964 | 21.11° C | 77% | - | 0 mm | - | - | - |
| 1778083656 | 21.11° C | 76% | - | 0 mm | - | - | - |
| 1778083352 | 21.11° C | 76% | - | 0 mm | - | - | - |
| 1778083051 | 21.11° C | 75% | - | 0 mm | - | - | - |
| 1778082747 | 21.11° C | 75% | - | 0 mm | - | - | - |
| 1778081615 | 20.56° C | 77% | - | 0 mm | - | - | - |
| 1778081311 | 20.56° C | 77% | - | 0 mm | - | - | - |
| 1778081009 | 20.56° C | 77% | - | 0 mm | - | - | - |
| 1778080708 | 20.56° C | 77% | - | 0 mm | - | - | - |
| 1778080404 | 20° C | 77% | - | 0 mm | - | - | - |
| 1778080101 | 20° C | 77% | - | 0 mm | - | - | - |
| 1778079798 | 20° C | 77% | - | 0 mm | - | - | - |
| 1778079495 | 20.56° C | 76% | - | 0 mm | - | - | - |
| 1778079191 | 20.56° C | 75% | - | 0 mm | - | - | - |
| 1778078889 | 20.56° C | 75% | - | 0 mm | - | - | - |
| 1778078585 | 20.56° C | 75% | - | 0 mm | - | - | - |
* Rain latest hour (hover to see other rain measurements)
** Current wind speed in m/s (hover to see current wind gust speed)